sensor_id;sensor_type;location;lat;lon;timestamp;P1;durP1;ratioP1;P2;durP2;ratioP2
49722;SDS011;43484;43.608;1.458;2023-03-26T00:01:11;7.25;;;1.45;;
49722;SDS011;43484;43.608;1.458;2023-03-26T00:03:41;9.60;;;2.28;;
49722;SDS011;43484;43.608;1.458;2023-03-26T00:06:11;4.10;;;1.38;;
49722;SDS011;43484;43.608;1.458;2023-03-26T00:08:42;6.65;;;1.90;;
49722;SDS011;43484;43.608;1.458;2023-03-26T00:11:13;4.03;;;1.42;;
49722;SDS011;43484;43.608;1.458;2023-03-26T00:13:41;14.45;;;1.90;;
49722;SDS011;43484;43.608;1.458;2023-03-26T00:16:09;10.13;;;1.75;;
49722;SDS011;43484;43.608;1.458;2023-03-26T00:18:42;8.77;;;1.90;;
49722;SDS011;43484;43.608;1.458;2023-03-26T00:21:11;9.57;;;2.60;;
49722;SDS011;43484;43.608;1.458;2023-03-26T00:23:39;9.32;;;2.10;;
49722;SDS011;43484;43.608;1.458;2023-03-26T00:26:06;6.60;;;1.48;;
49722;SDS011;43484;43.608;1.458;2023-03-26T00:28:39;11.55;;;2.28;;
49722;SDS011;43484;43.608;1.458;2023-03-26T00:31:08;12.15;;;2.38;;
49722;SDS011;43484;43.608;1.458;2023-03-26T00:33:37;18.80;;;4.47;;
49722;SDS011;43484;43.608;1.458;2023-03-26T00:36:07;8.77;;;1.80;;
49722;SDS011;43484;43.608;1.458;2023-03-26T00:38:37;10.60;;;2.00;;
49722;SDS011;43484;43.608;1.458;2023-03-26T00:41:07;9.55;;;2.00;;
49722;SDS011;43484;43.608;1.458;2023-03-26T00:43:44;9.02;;;1.60;;
49722;SDS011;43484;43.608;1.458;2023-03-26T00:46:11;11.30;;;2.72;;
49722;SDS011;43484;43.608;1.458;2023-03-26T00:48:38;6.30;;;1.98;;
49722;SDS011;43484;43.608;1.458;2023-03-26T00:51:11;8.18;;;1.83;;
49722;SDS011;43484;43.608;1.458;2023-03-26T00:53:41;6.15;;;1.48;;
49722;SDS011;43484;43.608;1.458;2023-03-26T00:56:09;7.45;;;1.77;;
49722;SDS011;43484;43.608;1.458;2023-03-26T00:58:37;16.70;;;2.20;;
49722;SDS011;43484;43.608;1.458;2023-03-26T01:01:05;7.90;;;2.13;;
49722;SDS011;43484;43.608;1.458;2023-03-26T01:03:36;10.07;;;1.23;;
49722;SDS011;43484;43.608;1.458;2023-03-26T01:06:07;10.73;;;1.75;;
49722;SDS011;43484;43.608;1.458;2023-03-26T01:08:44;7.68;;;1.48;;
49722;SDS011;43484;43.608;1.458;2023-03-26T01:11:18;5.55;;;1.20;;
49722;SDS011;43484;43.608;1.458;2023-03-26T01:13:48;12.25;;;1.60;;
49722;SDS011;43484;43.608;1.458;2023-03-26T01:16:39;7.43;;;1.50;;
49722;SDS011;43484;43.608;1.458;2023-03-26T01:19:08;8.73;;;1.67;;
49722;SDS011;43484;43.608;1.458;2023-03-26T01:21:41;10.85;;;1.25;;
49722;SDS011;43484;43.608;1.458;2023-03-26T01:24:08;8.25;;;1.63;;
49722;SDS011;43484;43.608;1.458;2023-03-26T01:29:57;10.70;;;1.92;;
49722;SDS011;43484;43.608;1.458;2023-03-26T01:32:19;12.35;;;1.67;;
49722;SDS011;43484;43.608;1.458;2023-03-26T01:40:58;5.63;;;2.08;;
49722;SDS011;43484;43.608;1.458;2023-03-26T01:46:19;5.22;;;1.67;;
49722;SDS011;43484;43.608;1.458;2023-03-26T01:48:49;15.82;;;3.80;;
49722;SDS011;43484;43.608;1.458;2023-03-26T01:51:27;10.48;;;1.70;;
49722;SDS011;43484;43.608;1.458;2023-03-26T01:53:57;8.18;;;1.50;;
49722;SDS011;43484;43.608;1.458;2023-03-26T02:01:43;9.65;;;2.60;;
49722;SDS011;43484;43.608;1.458;2023-03-26T02:10:03;8.68;;;1.45;;
49722;SDS011;43484;43.608;1.458;2023-03-26T02:12:36;8.60;;;2.33;;
49722;SDS011;43484;43.608;1.458;2023-03-26T02:15:03;7.15;;;1.73;;
49722;SDS011;43484;43.608;1.458;2023-03-26T02:17:31;7.85;;;2.50;;
49722;SDS011;43484;43.608;1.458;2023-03-26T02:19:58;6.97;;;1.70;;
49722;SDS011;43484;43.608;1.458;2023-03-26T02:22:31;8.80;;;2.20;;
49722;SDS011;43484;43.608;1.458;2023-03-26T02:24:58;6.78;;;2.03;;
49722;SDS011;43484;43.608;1.458;2023-03-26T02:27:24;3.05;;;1.30;;
49722;SDS011;43484;43.608;1.458;2023-03-26T02:29:51;9.18;;;1.58;;
49722;SDS011;43484;43.608;1.458;2023-03-26T02:32:18;7.72;;;1.98;;
49722;SDS011;43484;43.608;1.458;2023-03-26T02:34:45;7.13;;;1.92;;
49722;SDS011;43484;43.608;1.458;2023-03-26T02:37:12;11.63;;;1.95;;
49722;SDS011;43484;43.608;1.458;2023-03-26T02:39:39;8.80;;;2.33;;
49722;SDS011;43484;43.608;1.458;2023-03-26T02:42:05;9.23;;;2.30;;
49722;SDS011;43484;43.608;1.458;2023-03-26T02:44:32;8.48;;;2.33;;
49722;SDS011;43484;43.608;1.458;2023-03-26T02:46:59;9.05;;;2.20;;
49722;SDS011;43484;43.608;1.458;2023-03-26T02:49:26;9.07;;;1.95;;
49722;SDS011;43484;43.608;1.458;2023-03-26T02:51:52;6.80;;;1.65;;
49722;SDS011;43484;43.608;1.458;2023-03-26T02:54:21;7.93;;;1.58;;
49722;SDS011;43484;43.608;1.458;2023-03-26T02:56:48;5.40;;;1.63;;
49722;SDS011;43484;43.608;1.458;2023-03-26T02:59:15;6.90;;;1.42;;
49722;SDS011;43484;43.608;1.458;2023-03-26T03:01:41;7.18;;;1.30;;
49722;SDS011;43484;43.608;1.458;2023-03-26T03:04:11;6.90;;;1.50;;
49722;SDS011;43484;43.608;1.458;2023-03-26T03:06:38;8.88;;;1.77;;
49722;SDS011;43484;43.608;1.458;2023-03-26T03:09:06;7.28;;;1.75;;
49722;SDS011;43484;43.608;1.458;2023-03-26T03:11:37;9.55;;;1.55;;
49722;SDS011;43484;43.608;1.458;2023-03-26T03:14:06;6.90;;;1.00;;
49722;SDS011;43484;43.608;1.458;2023-03-26T03:16:33;13.52;;;1.33;;
49722;SDS011;43484;43.608;1.458;2023-03-26T03:18:59;8.85;;;1.83;;
49722;SDS011;43484;43.608;1.458;2023-03-26T03:21:27;7.53;;;1.52;;
49722;SDS011;43484;43.608;1.458;2023-03-26T03:23:54;11.63;;;1.85;;
49722;SDS011;43484;43.608;1.458;2023-03-26T03:26:25;5.30;;;1.40;;
49722;SDS011;43484;43.608;1.458;2023-03-26T03:28:56;12.13;;;1.70;;
49722;SDS011;43484;43.608;1.458;2023-03-26T03:31:23;6.75;;;1.27;;
49722;SDS011;43484;43.608;1.458;2023-03-26T03:33:51;13.88;;;1.52;;
49722;SDS011;43484;43.608;1.458;2023-03-26T03:36:19;7.70;;;1.42;;
49722;SDS011;43484;43.608;1.458;2023-03-26T03:38:48;10.57;;;1.50;;
49722;SDS011;43484;43.608;1.458;2023-03-26T03:41:15;15.63;;;1.80;;
49722;SDS011;43484;43.608;1.458;2023-03-26T03:43:44;7.88;;;1.50;;
49722;SDS011;43484;43.608;1.458;2023-03-26T03:46:11;7.63;;;1.10;;
49722;SDS011;43484;43.608;1.458;2023-03-26T03:48:37;8.35;;;1.90;;
49722;SDS011;43484;43.608;1.458;2023-03-26T03:51:04;11.82;;;1.50;;
49722;SDS011;43484;43.608;1.458;2023-03-26T03:53:31;5.45;;;1.50;;
49722;SDS011;43484;43.608;1.458;2023-03-26T03:56:02;10.75;;;1.35;;
49722;SDS011;43484;43.608;1.458;2023-03-26T03:58:29;5.25;;;0.93;;
49722;SDS011;43484;43.608;1.458;2023-03-26T04:00:56;6.82;;;1.30;;
49722;SDS011;43484;43.608;1.458;2023-03-26T04:03:29;7.10;;;1.83;;
49722;SDS011;43484;43.608;1.458;2023-03-26T04:05:59;4.45;;;0.95;;
49722;SDS011;43484;43.608;1.458;2023-03-26T04:08:26;9.55;;;1.42;;
49722;SDS011;43484;43.608;1.458;2023-03-26T04:10:53;12.63;;;1.70;;
49722;SDS011;43484;43.608;1.458;2023-03-26T04:13:20;11.63;;;1.77;;
49722;SDS011;43484;43.608;1.458;2023-03-26T04:15:46;8.95;;;1.67;;
49722;SDS011;43484;43.608;1.458;2023-03-26T04:18:13;5.43;;;1.08;;
49722;SDS011;43484;43.608;1.458;2023-03-26T04:20:41;12.52;;;2.05;;
49722;SDS011;43484;43.608;1.458;2023-03-26T04:23:12;12.38;;;1.88;;
49722;SDS011;43484;43.608;1.458;2023-03-26T04:25:41;10.98;;;1.90;;
49722;SDS011;43484;43.608;1.458;2023-03-26T04:28:11;7.35;;;1.27;;
49722;SDS011;43484;43.608;1.458;2023-03-26T04:30:53;12.27;;;1.88;;
49722;SDS011;43484;43.608;1.458;2023-03-26T04:33:22;12.07;;;1.80;;
49722;SDS011;43484;43.608;1.458;2023-03-26T04:35:50;8.82;;;1.67;;
49722;SDS011;43484;43.608;1.458;2023-03-26T04:38:17;9.65;;;1.55;;
49722;SDS011;43484;43.608;1.458;2023-03-26T04:40:44;12.93;;;1.60;;
49722;SDS011;43484;43.608;1.458;2023-03-26T04:43:14;9.43;;;1.88;;
49722;SDS011;43484;43.608;1.458;2023-03-26T04:45:43;9.93;;;1.45;;
49722;SDS011;43484;43.608;1.458;2023-03-26T04:48:13;4.72;;;1.00;;
49722;SDS011;43484;43.608;1.458;2023-03-26T04:50:41;7.20;;;1.40;;
49722;SDS011;43484;43.608;1.458;2023-03-26T04:53:13;6.05;;;1.13;;
49722;SDS011;43484;43.608;1.458;2023-03-26T04:56:05;5.13;;;1.13;;
49722;SDS011;43484;43.608;1.458;2023-03-26T04:58:37;5.32;;;1.20;;
49722;SDS011;43484;43.608;1.458;2023-03-26T05:01:05;8.57;;;1.52;;
49722;SDS011;43484;43.608;1.458;2023-03-26T05:03:35;6.13;;;1.27;;
49722;SDS011;43484;43.608;1.458;2023-03-26T05:06:06;8.40;;;1.48;;
49722;SDS011;43484;43.608;1.458;2023-03-26T05:08:36;5.65;;;1.30;;
49722;SDS011;43484;43.608;1.458;2023-03-26T05:11:02;9.15;;;2.13;;
49722;SDS011;43484;43.608;1.458;2023-03-26T05:13:32;11.95;;;1.73;;
49722;SDS011;43484;43.608;1.458;2023-03-26T05:15:59;6.88;;;1.30;;
49722;SDS011;43484;43.608;1.458;2023-03-26T05:18:25;3.90;;;1.00;;
49722;SDS011;43484;43.608;1.458;2023-03-26T05:20:52;7.20;;;1.15;;
49722;SDS011;43484;43.608;1.458;2023-03-26T05:23:19;8.82;;;1.33;;
49722;SDS011;43484;43.608;1.458;2023-03-26T05:25:45;8.38;;;0.80;;
49722;SDS011;43484;43.608;1.458;2023-03-26T05:28:12;5.72;;;0.90;;
49722;SDS011;43484;43.608;1.458;2023-03-26T05:30:40;5.00;;;0.73;;
49722;SDS011;43484;43.608;1.458;2023-03-26T05:33:09;7.32;;;1.00;;
49722;SDS011;43484;43.608;1.458;2023-03-26T05:35:35;5.10;;;1.00;;
49722;SDS011;43484;43.608;1.458;2023-03-26T05:38:02;7.07;;;0.77;;
49722;SDS011;43484;43.608;1.458;2023-03-26T05:40:29;5.35;;;0.73;;
49722;SDS011;43484;43.608;1.458;2023-03-26T05:42:55;5.75;;;1.00;;
49722;SDS011;43484;43.608;1.458;2023-03-26T05:45:22;6.30;;;0.90;;
49722;SDS011;43484;43.608;1.458;2023-03-26T05:47:48;7.30;;;0.85;;
49722;SDS011;43484;43.608;1.458;2023-03-26T05:50:16;10.02;;;1.15;;
49722;SDS011;43484;43.608;1.458;2023-03-26T05:52:43;9.15;;;1.23;;
49722;SDS011;43484;43.608;1.458;2023-03-26T05:55:10;5.13;;;0.80;;
49722;SDS011;43484;43.608;1.458;2023-03-26T05:57:36;8.07;;;1.13;;
49722;SDS011;43484;43.608;1.458;2023-03-26T06:00:04;4.28;;;0.88;;
49722;SDS011;43484;43.608;1.458;2023-03-26T06:02:34;8.73;;;1.35;;
49722;SDS011;43484;43.608;1.458;2023-03-26T06:05:01;7.18;;;0.85;;
49722;SDS011;43484;43.608;1.458;2023-03-26T06:07:28;7.80;;;0.93;;
49722;SDS011;43484;43.608;1.458;2023-03-26T06:09:54;9.15;;;0.98;;
49722;SDS011;43484;43.608;1.458;2023-03-26T06:12:21;10.63;;;1.42;;
49722;SDS011;43484;43.608;1.458;2023-03-26T06:14:48;7.20;;;1.30;;
49722;SDS011;43484;43.608;1.458;2023-03-26T06:17:14;9.68;;;1.52;;
49722;SDS011;43484;43.608;1.458;2023-03-26T06:19:41;7.25;;;0.90;;
49722;SDS011;43484;43.608;1.458;2023-03-26T06:22:07;13.00;;;1.30;;
49722;SDS011;43484;43.608;1.458;2023-03-26T06:24:34;5.63;;;0.98;;
49722;SDS011;43484;43.608;1.458;2023-03-26T06:27:01;10.82;;;1.00;;
49722;SDS011;43484;43.608;1.458;2023-03-26T06:29:28;7.68;;;1.10;;
49722;SDS011;43484;43.608;1.458;2023-03-26T06:31:54;11.43;;;1.27;;
49722;SDS011;43484;43.608;1.458;2023-03-26T06:34:28;8.55;;;0.90;;
49722;SDS011;43484;43.608;1.458;2023-03-26T06:36:55;5.97;;;0.90;;
49722;SDS011;43484;43.608;1.458;2023-03-26T06:39:22;8.15;;;0.60;;
49722;SDS011;43484;43.608;1.458;2023-03-26T06:41:48;8.10;;;1.20;;
49722;SDS011;43484;43.608;1.458;2023-03-26T06:44:15;8.60;;;0.98;;
49722;SDS011;43484;43.608;1.458;2023-03-26T06:46:41;7.47;;;0.93;;
49722;SDS011;43484;43.608;1.458;2023-03-26T06:49:08;7.65;;;0.82;;
49722;SDS011;43484;43.608;1.458;2023-03-26T06:51:34;11.50;;;0.98;;
49722;SDS011;43484;43.608;1.458;2023-03-26T06:54:02;10.30;;;1.23;;
49722;SDS011;43484;43.608;1.458;2023-03-26T06:56:29;4.28;;;0.55;;
49722;SDS011;43484;43.608;1.458;2023-03-26T06:58:56;9.40;;;0.80;;
49722;SDS011;43484;43.608;1.458;2023-03-26T07:01:22;6.07;;;1.42;;
49722;SDS011;43484;43.608;1.458;2023-03-26T07:03:49;7.15;;;1.38;;
49722;SDS011;43484;43.608;1.458;2023-03-26T07:06:16;6.85;;;1.33;;
49722;SDS011;43484;43.608;1.458;2023-03-26T07:08:42;2.35;;;0.45;;
49722;SDS011;43484;43.608;1.458;2023-03-26T07:11:09;2.92;;;0.57;;
49722;SDS011;43484;43.608;1.458;2023-03-26T07:13:36;7.55;;;0.73;;
49722;SDS011;43484;43.608;1.458;2023-03-26T07:16:05;5.80;;;0.93;;
49722;SDS011;43484;43.608;1.458;2023-03-26T07:18:32;7.28;;;0.93;;
49722;SDS011;43484;43.608;1.458;2023-03-26T07:20:59;4.78;;;0.85;;
49722;SDS011;43484;43.608;1.458;2023-03-26T07:23:26;4.70;;;0.98;;
49722;SDS011;43484;43.608;1.458;2023-03-26T07:25:53;9.35;;;1.00;;
49722;SDS011;43484;43.608;1.458;2023-03-26T07:28:38;6.68;;;1.23;;
49722;SDS011;43484;43.608;1.458;2023-03-26T07:31:41;8.70;;;1.10;;
49722;SDS011;43484;43.608;1.458;2023-03-26T07:39:36;6.25;;;1.00;;
49722;SDS011;43484;43.608;1.458;2023-03-26T07:47:35;10.88;;;1.10;;
49722;SDS011;43484;43.608;1.458;2023-03-26T07:50:02;6.90;;;1.15;;
49722;SDS011;43484;43.608;1.458;2023-03-26T07:52:29;7.22;;;1.00;;
49722;SDS011;43484;43.608;1.458;2023-03-26T07:54:56;7.47;;;0.70;;
49722;SDS011;43484;43.608;1.458;2023-03-26T07:57:32;8.45;;;1.02;;
49722;SDS011;43484;43.608;1.458;2023-03-26T08:03:00;6.55;;;0.85;;
49722;SDS011;43484;43.608;1.458;2023-03-26T08:21:43;9.57;;;1.65;;
49722;SDS011;43484;43.608;1.458;2023-03-26T08:24:17;7.07;;;1.15;;
49722;SDS011;43484;43.608;1.458;2023-03-26T08:31:50;10.52;;;1.38;;
49722;SDS011;43484;43.608;1.458;2023-03-26T08:34:17;13.98;;;1.35;;
49722;SDS011;43484;43.608;1.458;2023-03-26T08:36:43;9.30;;;1.48;;
49722;SDS011;43484;43.608;1.458;2023-03-26T08:39:11;6.82;;;0.93;;
49722;SDS011;43484;43.608;1.458;2023-03-26T09:09:19;9.60;;;1.65;;
49722;SDS011;43484;43.608;1.458;2023-03-26T09:33:02;7.50;;;1.38;;
49722;SDS011;43484;43.608;1.458;2023-03-26T09:37:57;8.88;;;1.73;;
49722;SDS011;43484;43.608;1.458;2023-03-26T09:40:37;14.40;;;2.47;;
49722;SDS011;43484;43.608;1.458;2023-03-26T09:51:37;12.63;;;1.85;;
49722;SDS011;43484;43.608;1.458;2023-03-26T09:54:32;13.73;;;1.80;;
49722;SDS011;43484;43.608;1.458;2023-03-26T10:10:54;17.35;;;1.60;;
49722;SDS011;43484;43.608;1.458;2023-03-26T10:21:41;12.85;;;2.10;;
49722;SDS011;43484;43.608;1.458;2023-03-26T10:27:26;13.30;;;1.95;;
49722;SDS011;43484;43.608;1.458;2023-03-26T10:36:35;11.43;;;1.90;;
49722;SDS011;43484;43.608;1.458;2023-03-26T10:42:08;17.13;;;3.47;;
49722;SDS011;43484;43.608;1.458;2023-03-26T10:47:52;16.30;;;2.25;;
49722;SDS011;43484;43.608;1.458;2023-03-26T10:50:53;16.98;;;2.72;;
49722;SDS011;43484;43.608;1.458;2023-03-26T10:59:07;13.90;;;2.65;;
49722;SDS011;43484;43.608;1.458;2023-03-26T11:07:42;18.15;;;2.63;;
49722;SDS011;43484;43.608;1.458;2023-03-26T11:16:03;21.33;;;3.25;;
49722;SDS011;43484;43.608;1.458;2023-03-26T11:18:39;21.63;;;2.88;;
49722;SDS011;43484;43.608;1.458;2023-03-26T11:34:55;21.33;;;3.17;;
49722;SDS011;43484;43.608;1.458;2023-03-26T11:37:33;22.85;;;3.20;;
49722;SDS011;43484;43.608;1.458;2023-03-26T11:40:17;20.80;;;2.50;;
49722;SDS011;43484;43.608;1.458;2023-03-26T11:42:55;23.23;;;2.80;;
49722;SDS011;43484;43.608;1.458;2023-03-26T11:45:33;17.00;;;2.30;;
49722;SDS011;43484;43.608;1.458;2023-03-26T11:48:13;12.50;;;2.03;;
49722;SDS011;43484;43.608;1.458;2023-03-26T11:50:56;17.35;;;2.50;;
49722;SDS011;43484;43.608;1.458;2023-03-26T11:53:28;21.60;;;4.07;;
49722;SDS011;43484;43.608;1.458;2023-03-26T11:56:01;16.10;;;1.88;;
49722;SDS011;43484;43.608;1.458;2023-03-26T11:58:37;17.00;;;2.05;;
49722;SDS011;43484;43.608;1.458;2023-03-26T12:01:39;15.70;;;2.42;;
49722;SDS011;43484;43.608;1.458;2023-03-26T12:04:11;17.88;;;2.45;;
49722;SDS011;43484;43.608;1.458;2023-03-26T12:07:28;26.00;;;3.55;;
49722;SDS011;43484;43.608;1.458;2023-03-26T12:09:34;10.05;;;1.90;;
49722;SDS011;43484;43.608;1.458;2023-03-26T12:12:02;12.77;;;2.08;;
49722;SDS011;43484;43.608;1.458;2023-03-26T12:14:31;14.32;;;1.70;;
49722;SDS011;43484;43.608;1.458;2023-03-26T12:17:01;14.75;;;2.20;;
49722;SDS011;43484;43.608;1.458;2023-03-26T12:19:43;17.58;;;2.08;;
49722;SDS011;43484;43.608;1.458;2023-03-26T12:25:02;9.70;;;2.15;;
49722;SDS011;43484;43.608;1.458;2023-03-26T12:27:46;20.35;;;2.75;;
49722;SDS011;43484;43.608;1.458;2023-03-26T12:30:58;17.35;;;2.35;;
49722;SDS011;43484;43.608;1.458;2023-03-26T12:33:23;19.63;;;2.08;;
49722;SDS011;43484;43.608;1.458;2023-03-26T12:36:14;7.97;;;1.58;;
49722;SDS011;43484;43.608;1.458;2023-03-26T12:38:44;10.02;;;2.15;;
49722;SDS011;43484;43.608;1.458;2023-03-26T12:41:32;6.70;;;1.50;;
49722;SDS011;43484;43.608;1.458;2023-03-26T12:44:25;11.13;;;1.67;;
49722;SDS011;43484;43.608;1.458;2023-03-26T12:47:18;12.65;;;1.52;;
49722;SDS011;43484;43.608;1.458;2023-03-26T12:50:11;5.37;;;1.20;;
49722;SDS011;43484;43.608;1.458;2023-03-26T13:01:16;13.30;;;1.52;;
49722;SDS011;43484;43.608;1.458;2023-03-26T13:12:48;7.97;;;1.83;;
49722;SDS011;43484;43.608;1.458;2023-03-26T13:32:26;9.98;;;1.20;;
49722;SDS011;43484;43.608;1.458;2023-03-26T13:37:36;7.95;;;1.20;;
49722;SDS011;43484;43.608;1.458;2023-03-26T13:40:15;15.75;;;1.40;;
49722;SDS011;43484;43.608;1.458;2023-03-26T13:43:03;8.15;;;1.85;;
49722;SDS011;43484;43.608;1.458;2023-03-26T13:46:11;7.95;;;1.13;;
49722;SDS011;43484;43.608;1.458;2023-03-26T13:48:56;7.80;;;1.13;;
49722;SDS011;43484;43.608;1.458;2023-03-26T13:57:18;18.00;;;2.25;;
49722;SDS011;43484;43.608;1.458;2023-03-26T13:59:52;17.90;;;1.45;;
49722;SDS011;43484;43.608;1.458;2023-03-26T14:02:29;19.63;;;2.15;;
49722;SDS011;43484;43.608;1.458;2023-03-26T14:05:06;5.78;;;0.93;;
49722;SDS011;43484;43.608;1.458;2023-03-26T14:07:45;8.13;;;1.33;;
49722;SDS011;43484;43.608;1.458;2023-03-26T14:10:16;5.25;;;0.93;;
49722;SDS011;43484;43.608;1.458;2023-03-26T14:15:26;13.63;;;1.50;;
49722;SDS011;43484;43.608;1.458;2023-03-26T14:18:09;13.50;;;1.40;;
49722;SDS011;43484;43.608;1.458;2023-03-26T14:29:16;13.52;;;1.40;;
49722;SDS011;43484;43.608;1.458;2023-03-26T14:40:07;9.35;;;1.10;;
49722;SDS011;43484;43.608;1.458;2023-03-26T14:54:28;7.13;;;1.65;;
49722;SDS011;43484;43.608;1.458;2023-03-26T15:03:16;10.88;;;1.63;;
49722;SDS011;43484;43.608;1.458;2023-03-26T15:12:06;11.63;;;1.95;;
49722;SDS011;43484;43.608;1.458;2023-03-26T15:14:51;7.03;;;1.30;;
49722;SDS011;43484;43.608;1.458;2023-03-26T15:17:37;4.70;;;0.80;;
49722;SDS011;43484;43.608;1.458;2023-03-26T15:23:24;12.23;;;1.73;;
49722;SDS011;43484;43.608;1.458;2023-03-26T15:30:21;5.05;;;0.63;;
49722;SDS011;43484;43.608;1.458;2023-03-26T15:43:15;9.00;;;1.10;;
49722;SDS011;43484;43.608;1.458;2023-03-26T15:46:20;7.25;;;1.05;;
49722;SDS011;43484;43.608;1.458;2023-03-26T15:51:52;6.82;;;1.17;;
49722;SDS011;43484;43.608;1.458;2023-03-26T15:57:22;9.48;;;0.75;;
49722;SDS011;43484;43.608;1.458;2023-03-26T16:05:44;7.25;;;1.42;;
49722;SDS011;43484;43.608;1.458;2023-03-26T16:08:32;13.70;;;1.58;;
49722;SDS011;43484;43.608;1.458;2023-03-26T16:11:12;8.40;;;1.15;;
49722;SDS011;43484;43.608;1.458;2023-03-26T16:13:42;6.28;;;1.20;;
49722;SDS011;43484;43.608;1.458;2023-03-26T16:16:16;13.10;;;0.95;;
49722;SDS011;43484;43.608;1.458;2023-03-26T16:18:56;8.80;;;0.77;;
49722;SDS011;43484;43.608;1.458;2023-03-26T16:21:34;5.47;;;1.05;;
49722;SDS011;43484;43.608;1.458;2023-03-26T16:31:55;6.07;;;0.70;;
49722;SDS011;43484;43.608;1.458;2023-03-26T16:34:36;8.73;;;1.10;;
49722;SDS011;43484;43.608;1.458;2023-03-26T16:48:50;12.35;;;1.17;;
49722;SDS011;43484;43.608;1.458;2023-03-26T16:54:16;8.68;;;2.20;;
49722;SDS011;43484;43.608;1.458;2023-03-26T17:02:34;6.40;;;1.30;;
49722;SDS011;43484;43.608;1.458;2023-03-26T17:05:16;12.82;;;1.45;;
49722;SDS011;43484;43.608;1.458;2023-03-26T17:07:47;10.50;;;1.35;;
49722;SDS011;43484;43.608;1.458;2023-03-26T17:10:29;10.70;;;1.15;;
49722;SDS011;43484;43.608;1.458;2023-03-26T17:13:07;13.75;;;1.90;;
49722;SDS011;43484;43.608;1.458;2023-03-26T17:16:03;9.70;;;1.42;;
49722;SDS011;43484;43.608;1.458;2023-03-26T17:18:37;12.00;;;1.50;;
49722;SDS011;43484;43.608;1.458;2023-03-26T17:21:12;13.32;;;2.53;;
49722;SDS011;43484;43.608;1.458;2023-03-26T17:27:25;11.48;;;1.17;;
49722;SDS011;43484;43.608;1.458;2023-03-26T17:35:38;11.60;;;1.27;;
49722;SDS011;43484;43.608;1.458;2023-03-26T17:38:49;8.98;;;1.30;;
49722;SDS011;43484;43.608;1.458;2023-03-26T17:40:55;8.68;;;1.13;;
49722;SDS011;43484;43.608;1.458;2023-03-26T17:46:02;13.23;;;1.17;;
49722;SDS011;43484;43.608;1.458;2023-03-26T17:48:35;8.38;;;1.63;;
49722;SDS011;43484;43.608;1.458;2023-03-26T17:53:58;14.55;;;1.50;;
49722;SDS011;43484;43.608;1.458;2023-03-26T17:56:26;12.18;;;1.83;;
49722;SDS011;43484;43.608;1.458;2023-03-26T17:58:58;9.52;;;1.20;;
49722;SDS011;43484;43.608;1.458;2023-03-26T18:01:38;17.67;;;3.17;;
49722;SDS011;43484;43.608;1.458;2023-03-26T18:04:10;11.82;;;1.80;;
49722;SDS011;43484;43.608;1.458;2023-03-26T18:18:09;16.08;;;2.00;;
49722;SDS011;43484;43.608;1.458;2023-03-26T18:20:43;11.10;;;1.40;;
49722;SDS011;43484;43.608;1.458;2023-03-26T18:23:19;11.13;;;1.70;;
49722;SDS011;43484;43.608;1.458;2023-03-26T18:28:40;14.88;;;2.20;;
49722;SDS011;43484;43.608;1.458;2023-03-26T18:31:18;15.10;;;2.05;;
49722;SDS011;43484;43.608;1.458;2023-03-26T18:33:47;15.95;;;2.00;;
49722;SDS011;43484;43.608;1.458;2023-03-26T18:36:15;22.92;;;3.13;;
49722;SDS011;43484;43.608;1.458;2023-03-26T18:38:44;22.75;;;2.10;;
49722;SDS011;43484;43.608;1.458;2023-03-26T18:41:22;16.80;;;2.42;;
49722;SDS011;43484;43.608;1.458;2023-03-26T18:43:59;21.65;;;2.42;;
49722;SDS011;43484;43.608;1.458;2023-03-26T18:46:28;17.23;;;2.30;;
49722;SDS011;43484;43.608;1.458;2023-03-26T18:48:55;25.40;;;3.10;;
49722;SDS011;43484;43.608;1.458;2023-03-26T18:51:24;22.25;;;3.78;;
49722;SDS011;43484;43.608;1.458;2023-03-26T18:53:53;20.77;;;2.80;;
49722;SDS011;43484;43.608;1.458;2023-03-26T18:56:26;16.95;;;2.38;;
49722;SDS011;43484;43.608;1.458;2023-03-26T18:58:55;16.60;;;1.73;;
49722;SDS011;43484;43.608;1.458;2023-03-26T19:01:24;15.77;;;2.53;;
49722;SDS011;43484;43.608;1.458;2023-03-26T19:03:57;15.60;;;1.38;;
49722;SDS011;43484;43.608;1.458;2023-03-26T19:06:28;10.95;;;1.52;;
49722;SDS011;43484;43.608;1.458;2023-03-26T19:09:04;16.30;;;1.52;;
49722;SDS011;43484;43.608;1.458;2023-03-26T19:11:45;15.50;;;1.60;;
49722;SDS011;43484;43.608;1.458;2023-03-26T19:14:15;14.57;;;2.13;;
49722;SDS011;43484;43.608;1.458;2023-03-26T19:16:43;9.82;;;1.58;;
49722;SDS011;43484;43.608;1.458;2023-03-26T19:19:17;11.63;;;1.60;;
49722;SDS011;43484;43.608;1.458;2023-03-26T19:21:48;11.07;;;1.58;;
49722;SDS011;43484;43.608;1.458;2023-03-26T19:24:16;23.73;;;3.40;;
49722;SDS011;43484;43.608;1.458;2023-03-26T19:26:45;17.02;;;2.10;;
49722;SDS011;43484;43.608;1.458;2023-03-26T19:29:14;12.38;;;1.73;;
49722;SDS011;43484;43.608;1.458;2023-03-26T19:31:50;16.67;;;1.90;;
49722;SDS011;43484;43.608;1.458;2023-03-26T19:34:24;10.45;;;1.13;;
49722;SDS011;43484;43.608;1.458;2023-03-26T19:36:58;8.15;;;1.33;;
49722;SDS011;43484;43.608;1.458;2023-03-26T19:39:39;13.18;;;1.85;;
49722;SDS011;43484;43.608;1.458;2023-03-26T19:42:11;10.30;;;1.48;;
49722;SDS011;43484;43.608;1.458;2023-03-26T19:44:41;4.55;;;0.98;;
49722;SDS011;43484;43.608;1.458;2023-03-26T19:47:21;12.38;;;1.90;;
49722;SDS011;43484;43.608;1.458;2023-03-26T19:56:02;9.15;;;1.42;;
49722;SDS011;43484;43.608;1.458;2023-03-26T19:58:40;7.82;;;1.13;;
49722;SDS011;43484;43.608;1.458;2023-03-26T20:01:17;7.20;;;1.00;;
49722;SDS011;43484;43.608;1.458;2023-03-26T20:03:47;8.93;;;1.08;;
49722;SDS011;43484;43.608;1.458;2023-03-26T20:06:16;8.80;;;1.30;;
49722;SDS011;43484;43.608;1.458;2023-03-26T20:08:53;9.25;;;1.10;;
49722;SDS011;43484;43.608;1.458;2023-03-26T20:11:30;14.38;;;1.23;;
49722;SDS011;43484;43.608;1.458;2023-03-26T20:13:59;7.75;;;2.15;;
49722;SDS011;43484;43.608;1.458;2023-03-26T20:16:27;16.58;;;1.85;;
49722;SDS011;43484;43.608;1.458;2023-03-26T20:18:55;14.50;;;1.75;;
49722;SDS011;43484;43.608;1.458;2023-03-26T20:21:24;20.73;;;2.55;;
49722;SDS011;43484;43.608;1.458;2023-03-26T20:23:51;14.70;;;2.78;;
49722;SDS011;43484;43.608;1.458;2023-03-26T20:26:19;15.65;;;2.05;;
49722;SDS011;43484;43.608;1.458;2023-03-26T20:28:47;13.38;;;1.58;;
49722;SDS011;43484;43.608;1.458;2023-03-26T20:31:22;13.82;;;1.75;;
49722;SDS011;43484;43.608;1.458;2023-03-26T20:33:52;15.48;;;2.17;;
49722;SDS011;43484;43.608;1.458;2023-03-26T20:36:19;13.52;;;1.83;;
49722;SDS011;43484;43.608;1.458;2023-03-26T20:39:03;12.85;;;2.17;;
49722;SDS011;43484;43.608;1.458;2023-03-26T20:41:33;13.50;;;2.40;;
49722;SDS011;43484;43.608;1.458;2023-03-26T20:44:07;19.45;;;2.38;;
49722;SDS011;43484;43.608;1.458;2023-03-26T20:46:41;14.55;;;1.98;;
49722;SDS011;43484;43.608;1.458;2023-03-26T20:49:09;12.50;;;2.35;;
49722;SDS011;43484;43.608;1.458;2023-03-26T20:51:37;16.10;;;2.03;;
49722;SDS011;43484;43.608;1.458;2023-03-26T20:54:04;11.38;;;1.63;;
49722;SDS011;43484;43.608;1.458;2023-03-26T20:56:34;13.63;;;2.17;;
49722;SDS011;43484;43.608;1.458;2023-03-26T20:59:03;20.17;;;2.35;;
49722;SDS011;43484;43.608;1.458;2023-03-26T21:01:36;26.00;;;3.10;;
49722;SDS011;43484;43.608;1.458;2023-03-26T21:04:04;18.38;;;2.25;;
49722;SDS011;43484;43.608;1.458;2023-03-26T21:06:31;23.23;;;2.97;;
49722;SDS011;43484;43.608;1.458;2023-03-26T21:08:58;21.75;;;3.30;;
49722;SDS011;43484;43.608;1.458;2023-03-26T21:11:28;17.85;;;2.63;;
49722;SDS011;43484;43.608;1.458;2023-03-26T21:14:14;18.08;;;2.75;;
49722;SDS011;43484;43.608;1.458;2023-03-26T21:16:46;33.40;;;4.38;;
49722;SDS011;43484;43.608;1.458;2023-03-26T21:19:13;25.05;;;2.60;;